createdAt,value
2023-01-02T00:00:45.850Z,100.00
2023-01-02T00:03:14.934Z,100.00
2023-01-02T00:05:42.537Z,100.00
2023-01-02T00:08:10.071Z,100.00
2023-01-02T00:10:37.684Z,100.00
2023-01-02T00:13:05.279Z,100.00
2023-01-02T00:15:33.203Z,100.00
2023-01-02T00:18:00.684Z,100.00
2023-01-02T00:20:29.547Z,100.00
2023-01-02T00:22:57.054Z,100.00
2023-01-02T00:25:24.600Z,100.00
2023-01-02T00:27:52.107Z,100.00
2023-01-02T00:30:19.749Z,100.00
2023-01-02T00:32:47.244Z,100.00
2023-01-02T00:35:14.963Z,100.00
2023-01-02T00:37:43.807Z,100.00
2023-01-02T00:40:13.730Z,100.00
2023-01-02T00:42:41.484Z,100.00
2023-01-02T00:45:10.956Z,100.00
2023-01-02T00:47:38.508Z,100.00
2023-01-02T00:50:07.320Z,100.00
2023-01-02T00:52:34.883Z,100.00
2023-01-02T00:55:03.886Z,100.00
2023-01-02T00:57:31.657Z,100.00
2023-01-02T00:59:59.149Z,100.00
2023-01-02T01:02:26.775Z,100.00
2023-01-02T01:04:54.523Z,100.00
2023-01-02T01:07:22.044Z,100.00
2023-01-02T01:09:49.555Z,100.00
2023-01-02T01:12:18.414Z,100.00
2023-01-02T01:14:45.938Z,100.00
2023-01-02T01:17:13.457Z,100.00
2023-01-02T01:19:40.972Z,100.00
2023-01-02T01:22:08.518Z,100.00
2023-01-02T01:24:36.066Z,100.00
2023-01-02T01:27:03.573Z,100.00
2023-01-02T01:29:32.430Z,100.00
2023-01-02T01:31:59.998Z,100.00
2023-01-02T01:34:27.632Z,100.00
2023-01-02T01:36:55.138Z,100.00
2023-01-02T01:39:22.715Z,100.00
2023-01-02T01:41:50.218Z,100.00
2023-01-02T01:44:43.786Z,100.00
2023-01-02T01:47:19.675Z,100.00
2023-01-02T01:49:47.924Z,100.00
2023-01-02T01:52:18.650Z,100.00
2023-01-02T01:54:52.061Z,100.00
2023-01-02T01:57:24.426Z,100.00
2023-01-02T01:59:53.875Z,100.00
2023-01-02T02:02:24.036Z,100.00
2023-01-02T02:04:52.327Z,100.00
2023-01-02T02:07:20.171Z,100.00
2023-01-02T02:09:52.603Z,100.00
2023-01-02T02:12:25.970Z,100.00
2023-01-02T02:14:56.800Z,100.00
2023-01-02T02:17:34.594Z,100.00
2023-01-02T02:20:31.866Z,100.00
2023-01-02T02:23:41.064Z,100.00
2023-01-02T02:26:51.986Z,100.00
2023-01-02T02:29:52.498Z,100.00
2023-01-02T02:32:26.858Z,100.00
2023-01-02T02:35:01.178Z,100.00
2023-01-02T02:37:38.218Z,100.00
2023-01-02T02:40:18.015Z,100.00
2023-01-02T02:42:56.764Z,100.00
2023-01-02T02:45:37.746Z,100.00
2023-01-02T02:48:13.519Z,100.00
2023-01-02T02:50:47.208Z,100.00
2023-01-02T02:53:21.370Z,100.00
2023-01-02T02:55:51.839Z,100.00
2023-01-02T02:58:21.751Z,100.00
2023-01-02T03:00:50.741Z,100.00
2023-01-02T03:03:19.782Z,100.00
2023-01-02T03:06:04.516Z,100.00
2023-01-02T03:08:40.492Z,100.00
2023-01-02T03:11:08.288Z,100.00
2023-01-02T03:13:42.549Z,100.00
2023-01-02T03:16:14.142Z,100.00
2023-01-02T03:18:52.734Z,100.00
2023-01-02T03:21:30.943Z,100.00
2023-01-02T03:24:01.940Z,100.00
2023-01-02T03:26:32.452Z,100.00
2023-01-02T03:29:05.237Z,100.00
2023-01-02T03:31:39.987Z,100.00
2023-01-02T03:34:11.306Z,100.00
2023-01-02T03:36:42.273Z,100.00
2023-01-02T03:39:14.160Z,100.00
2023-01-02T03:41:45.745Z,100.00
2023-01-02T03:44:15.463Z,100.00
2023-01-02T03:46:48.933Z,100.00
2023-01-02T03:49:23.175Z,100.00
2023-01-02T03:51:50.822Z,100.00
2023-01-02T03:54:19.672Z,100.00
2023-01-02T03:56:57.510Z,100.00
2023-01-02T03:59:30.673Z,100.00
2023-01-02T04:02:05.275Z,100.00
2023-01-02T04:04:43.062Z,100.00
2023-01-02T04:07:19.696Z,100.00
2023-01-02T04:09:50.467Z,100.00
2023-01-02T04:12:21.747Z,100.00
2023-01-02T04:14:53.126Z,100.00
2023-01-02T04:17:25.375Z,100.00
2023-01-02T04:19:56.435Z,100.00
2023-01-02T04:22:29.470Z,100.00
2023-01-02T04:25:02.528Z,100.00
2023-01-02T04:27:34.696Z,100.00
2023-01-02T04:30:02.837Z,100.00
2023-01-02T04:32:36.405Z,100.00
2023-01-02T04:35:09.052Z,100.00
2023-01-02T04:37:39.203Z,100.00
2023-01-02T04:40:12.062Z,100.00
2023-01-02T04:42:39.578Z,100.00
2023-01-02T04:45:08.081Z,100.00
2023-01-02T04:47:36.932Z,100.00
2023-01-02T04:50:04.620Z,100.00
2023-01-02T04:52:37.001Z,100.00
2023-01-02T04:55:05.336Z,100.00
2023-01-02T04:57:32.926Z,100.00
2023-01-02T05:00:00.489Z,100.00
2023-01-02T05:02:28.836Z,100.00
2023-01-02T05:04:57.737Z,100.00
2023-01-02T05:07:25.253Z,100.00
2023-01-02T05:09:52.716Z,100.00
2023-01-02T05:12:20.191Z,100.00
2023-01-02T05:14:47.682Z,100.00
2023-01-02T05:17:15.177Z,100.00
2023-01-02T05:19:42.746Z,100.00
2023-01-02T05:22:31.337Z,100.00
2023-01-02T05:24:58.902Z,100.00
2023-01-02T05:27:26.433Z,100.00
2023-01-02T05:29:53.938Z,100.00
2023-01-02T05:32:21.425Z,100.00
2023-01-02T05:34:48.914Z,100.00
2023-01-02T05:37:17.748Z,100.00
2023-01-02T05:39:45.254Z,100.00
2023-01-02T05:42:12.780Z,100.00
2023-01-02T05:44:40.273Z,100.00
2023-01-02T05:47:10.852Z,100.00
2023-01-02T05:49:40.930Z,100.00
2023-01-02T05:52:08.439Z,100.00
2023-01-02T05:54:37.251Z,100.00
2023-01-02T05:57:04.940Z,100.00
2023-01-02T05:59:35.942Z,100.00
2023-01-02T06:02:04.006Z,100.00
2023-01-02T06:04:31.799Z,100.00
2023-01-02T06:06:59.323Z,100.00
2023-01-02T06:09:26.815Z,100.00
2023-01-02T06:11:55.723Z,100.00
2023-01-02T06:14:24.048Z,100.00
2023-01-02T06:16:51.598Z,100.00
2023-01-02T06:19:19.081Z,100.00
2023-01-02T06:21:46.582Z,100.00
2023-01-02T06:24:14.044Z,100.00
2023-01-02T06:26:41.525Z,100.00
2023-01-02T06:29:11.011Z,100.00
2023-01-02T06:31:40.037Z,100.00
2023-01-02T06:34:08.155Z,100.00
2023-01-02T06:36:35.742Z,100.00
2023-01-02T06:39:03.574Z,100.00
2023-01-02T06:41:31.564Z,100.00
2023-01-02T06:43:59.060Z,100.00
2023-01-02T06:46:27.904Z,100.00
2023-01-02T06:48:55.403Z,100.00
2023-01-02T06:51:24.242Z,100.00
2023-01-02T06:53:52.069Z,100.00
2023-01-02T06:56:21.144Z,100.00
2023-01-02T06:58:49.276Z,100.00
2023-01-02T07:01:18.959Z,100.00
2023-01-02T07:03:47.938Z,100.00
2023-01-02T07:06:17.421Z,100.00
2023-01-02T07:08:45.268Z,100.00
2023-01-02T07:11:15.374Z,100.00
2023-01-02T07:13:44.150Z,100.00
2023-01-02T07:16:13.505Z,100.00
2023-01-02T07:18:41.198Z,100.00
2023-01-02T07:21:11.837Z,100.00
2023-01-02T07:23:39.738Z,100.00
2023-01-02T07:26:08.137Z,100.00
2023-01-02T07:28:36.594Z,100.00
2023-01-02T07:31:08.042Z,100.00
2023-01-02T07:33:36.286Z,100.00
2023-01-02T07:36:06.291Z,100.00
2023-01-02T07:38:35.966Z,100.00
2023-01-02T07:41:03.446Z,100.00
2023-01-02T07:43:31.104Z,100.00
2023-01-02T07:46:03.766Z,100.00
2023-01-02T07:48:31.481Z,100.00
2023-01-02T07:51:01.612Z,100.00
2023-01-02T07:53:29.227Z,100.00
2023-01-02T07:55:59.856Z,100.00
2023-01-02T07:58:27.965Z,100.00
2023-01-02T08:00:59.884Z,100.00
2023-01-02T08:03:32.064Z,100.00
2023-01-02T08:06:03.987Z,100.00
2023-01-02T08:08:31.459Z,100.00
2023-01-02T08:11:00.298Z,100.00
2023-01-02T08:13:27.767Z,100.00
2023-01-02T08:15:55.255Z,100.00
2023-01-02T08:18:22.735Z,100.00
2023-01-02T08:20:50.221Z,100.00
2023-01-02T08:23:17.703Z,100.00
2023-01-02T08:25:45.168Z,100.00
2023-01-02T08:28:13.995Z,100.00
2023-01-02T08:30:41.603Z,100.00
2023-01-02T08:33:09.143Z,100.00
2023-01-02T08:35:38.951Z,100.00
2023-01-02T08:38:06.821Z,100.00
2023-01-02T08:40:34.377Z,100.00
2023-01-02T08:43:01.870Z,100.00
2023-01-02T08:45:31.043Z,100.00
2023-01-02T08:47:58.538Z,100.00
2023-01-02T08:50:26.222Z,100.00
2023-01-02T08:52:53.770Z,99.43
2023-01-02T08:55:21.258Z,96.53
2023-01-02T08:57:48.721Z,93.10
2023-01-02T09:00:16.863Z,89.58
2023-01-02T09:02:45.759Z,90.46
2023-01-02T09:05:13.355Z,86.62
2023-01-02T09:07:40.851Z,89.86
2023-01-02T09:10:09.338Z,89.13
2023-01-02T09:12:36.875Z,88.60
2023-01-02T09:15:04.972Z,85.29
2023-01-02T09:17:32.447Z,81.75
2023-01-02T09:20:01.255Z,80.28
2023-01-02T09:22:28.719Z,80.68
2023-01-02T09:24:56.219Z,80.14
2023-01-02T09:27:23.805Z,81.18
2023-01-02T09:29:53.109Z,84.75
2023-01-02T09:32:20.978Z,87.00
2023-01-02T09:34:50.814Z,84.96
2023-01-02T09:37:19.633Z,83.16
2023-01-02T09:39:47.402Z,85.41
2023-01-02T09:42:18.025Z,86.81
2023-01-02T09:44:49.211Z,87.85
2023-01-02T09:47:21.001Z,87.63
2023-01-02T09:49:50.668Z,86.79
2023-01-02T09:52:24.043Z,85.16
2023-01-02T09:54:51.648Z,81.95
2023-01-02T09:57:40.776Z,81.23
2023-01-02T10:00:15.799Z,79.72
2023-01-02T10:03:07.950Z,78.65
2023-01-02T10:05:57.638Z,76.94
2023-01-02T10:08:33.588Z,76.09
2023-01-02T10:11:11.388Z,75.59
2023-01-02T10:16:36.759Z,70.65
2023-01-02T10:19:08.287Z,67.74
2023-01-02T10:21:38.501Z,66.12
2023-01-02T10:24:12.761Z,65.08
2023-01-02T10:26:46.616Z,67.92
2023-01-02T10:29:21.117Z,67.74
2023-01-02T10:31:53.978Z,68.59
2023-01-02T10:34:24.356Z,69.07
2023-01-02T10:36:52.765Z,68.38
2023-01-02T10:39:23.522Z,67.60
2023-01-02T10:41:54.999Z,68.38
2023-01-02T10:44:27.928Z,64.77
2023-01-02T10:46:56.524Z,64.32
2023-01-02T10:49:26.747Z,63.25
2023-01-02T10:52:04.028Z,62.54
2023-01-02T10:54:55.040Z,61.84
2023-01-02T10:57:34.888Z,61.73
2023-01-02T11:00:04.246Z,61.56
2023-01-02T11:02:37.878Z,61.78
2023-01-02T11:05:07.313Z,60.71
2023-01-02T11:07:38.917Z,60.42
2023-01-02T11:10:23.215Z,61.03
2023-01-02T11:12:50.734Z,61.24
2023-01-02T11:15:26.153Z,62.46
2023-01-02T11:17:54.315Z,62.43
2023-01-02T11:20:28.736Z,63.85
2023-01-02T11:22:58.917Z,63.64
2023-01-02T11:25:29.962Z,66.46
2023-01-02T11:27:59.303Z,66.60
2023-01-02T11:30:33.330Z,66.54
2023-01-02T11:33:08.179Z,67.41
2023-01-02T11:35:39.662Z,66.46
2023-01-02T11:38:15.399Z,67.47
2023-01-02T11:40:55.610Z,67.39
2023-01-02T11:43:45.711Z,67.89
2023-01-02T11:46:23.505Z,69.35
2023-01-02T11:48:53.792Z,71.82
2023-01-02T11:51:22.631Z,74.11
2023-01-02T11:53:53.599Z,76.40
2023-01-02T11:56:27.984Z,79.05
2023-01-02T11:59:02.120Z,78.06
2023-01-02T12:01:38.117Z,78.70
2023-01-02T12:04:06.188Z,81.35
2023-01-02T12:06:47.243Z,77.70
2023-01-02T12:09:20.890Z,76.62
2023-01-02T12:12:09.404Z,76.12
2023-01-02T12:14:55.012Z,74.54
2023-01-02T12:17:31.085Z,73.93
2023-01-02T12:20:18.061Z,72.74
2023-01-02T12:23:14.822Z,70.82
2023-01-02T12:25:52.432Z,69.21
2023-01-02T12:28:45.080Z,68.05
2023-01-02T12:31:24.553Z,67.21
2023-01-02T12:34:00.706Z,66.99
2023-01-02T12:36:44.950Z,67.91
2023-01-02T12:39:50.116Z,68.83
2023-01-02T12:42:31.055Z,70.54
2023-01-02T12:45:00.307Z,70.75
2023-01-02T12:47:56.589Z,71.42
2023-01-02T12:50:49.176Z,73.00
2023-01-02T12:53:35.563Z,73.33
2023-01-02T12:56:11.496Z,72.86
2023-01-02T12:58:51.755Z,71.07
2023-01-02T13:01:26.796Z,69.64
2023-01-02T13:04:03.393Z,69.00
2023-01-02T13:06:45.769Z,68.60
2023-01-02T13:09:23.140Z,67.71
2023-01-02T13:11:57.553Z,66.05
2023-01-02T13:14:32.704Z,65.32
2023-01-02T13:17:13.685Z,66.65
2023-01-02T13:19:46.646Z,67.44
2023-01-02T13:22:27.886Z,68.86
2023-01-02T13:24:57.430Z,69.26
2023-01-02T13:27:25.492Z,71.23
2023-01-02T13:29:54.184Z,72.38
2023-01-02T13:32:29.669Z,72.81
2023-01-02T13:35:01.840Z,73.87
2023-01-02T13:37:30.724Z,74.87
2023-01-02T13:40:00.768Z,76.23
2023-01-02T13:42:49.579Z,76.50
2023-01-02T13:45:21.595Z,78.41
2023-01-02T13:47:55.540Z,78.01
2023-01-02T13:50:28.244Z,77.75
2023-01-02T13:53:27.873Z,75.84
2023-01-02T13:56:05.640Z,76.06
2023-01-02T13:58:48.168Z,77.26
2023-01-02T14:01:34.541Z,76.63
2023-01-02T14:04:29.485Z,77.41
2023-01-02T14:07:27.195Z,79.98
2023-01-02T14:10:08.116Z,82.32
2023-01-02T14:12:43.796Z,83.12
2023-01-02T14:15:18.929Z,82.40
2023-01-02T14:17:54.858Z,83.43
2023-01-02T14:20:27.251Z,86.88
2023-01-02T14:22:57.380Z,89.35
2023-01-02T14:25:26.035Z,96.61
2023-01-02T14:27:56.671Z,100.00
2023-01-02T14:30:31.251Z,100.00
2023-01-02T14:33:00.385Z,100.00
2023-01-02T14:35:33.209Z,100.00
2023-01-02T14:38:11.257Z,100.00
2023-01-02T14:40:40.689Z,100.00
2023-01-02T14:43:30.714Z,100.00
2023-01-02T14:46:02.762Z,100.00
2023-01-02T14:48:36.284Z,100.00
2023-01-02T14:51:09.993Z,100.00
2023-01-02T14:53:42.394Z,100.00
2023-01-02T14:56:15.682Z,100.00
2023-01-02T14:58:44.667Z,100.00
2023-01-02T15:01:16.419Z,100.00
2023-01-02T15:04:14.604Z,100.00
2023-01-02T15:06:46.458Z,100.00
2023-01-02T15:09:30.520Z,100.00
2023-01-02T15:12:16.781Z,100.00
2023-01-02T15:14:44.508Z,100.00
2023-01-02T15:17:14.639Z,100.00
2023-01-02T15:19:43.880Z,100.00
2023-01-02T15:22:14.673Z,100.00
2023-01-02T15:24:48.866Z,100.00
2023-01-02T15:27:23.909Z,100.00
2023-01-02T15:29:53.657Z,100.00
2023-01-02T15:32:23.526Z,100.00
2023-01-02T15:34:51.622Z,100.00
2023-01-02T15:37:23.536Z,100.00
2023-01-02T15:39:53.250Z,100.00
2023-01-02T15:42:56.325Z,100.00
2023-01-02T15:45:23.826Z,99.11
2023-01-02T15:47:52.685Z,98.34
2023-01-02T15:50:23.279Z,100.00
2023-01-02T15:52:58.093Z,100.00
2023-01-02T15:55:26.345Z,100.00
2023-01-02T15:57:55.432Z,100.00
2023-01-02T16:00:35.964Z,100.00
2023-01-02T16:03:04.325Z,100.00
2023-01-02T16:05:46.169Z,100.00
2023-01-02T16:08:20.714Z,100.00
2023-01-02T16:10:51.305Z,100.00
2023-01-02T16:13:40.471Z,100.00
2023-01-02T16:16:15.890Z,100.00
2023-01-02T16:18:47.688Z,100.00
2023-01-02T16:21:16.892Z,100.00
2023-01-02T16:23:51.153Z,100.00
2023-01-02T16:26:20.805Z,100.00
2023-01-02T16:28:51.237Z,100.00
2023-01-02T16:31:20.904Z,100.00
2023-01-02T16:33:48.508Z,100.00
2023-01-02T16:36:22.473Z,100.00
2023-01-02T16:38:55.690Z,100.00
2023-01-02T16:42:15.551Z,100.00
2023-01-02T16:44:43.074Z,100.00
2023-01-02T16:47:11.257Z,100.00
2023-01-02T16:49:39.174Z,100.00
2023-01-02T16:52:06.767Z,100.00
2023-01-02T16:54:35.587Z,100.00
2023-01-02T16:57:06.434Z,100.00
2023-01-02T16:59:35.909Z,100.00
2023-01-02T17:02:03.569Z,100.00
2023-01-02T17:04:31.506Z,100.00
2023-01-02T17:06:59.001Z,100.00
2023-01-02T17:09:26.474Z,100.00
2023-01-02T17:12:01.095Z,100.00
2023-01-02T17:14:29.071Z,100.00
2023-01-02T17:16:56.775Z,100.00
2023-01-02T17:19:24.692Z,100.00
2023-01-02T17:21:52.570Z,100.00
2023-01-02T17:24:20.137Z,100.00
2023-01-02T17:26:48.049Z,100.00
2023-01-02T17:29:16.923Z,100.00
2023-01-02T17:31:44.484Z,100.00
2023-01-02T17:34:11.971Z,100.00
2023-01-02T17:36:39.452Z,100.00
2023-01-02T17:39:07.009Z,100.00
2023-01-02T17:41:34.497Z,100.00
2023-01-02T17:44:03.748Z,100.00
2023-01-02T17:49:21.923Z,100.00
2023-01-02T17:51:49.508Z,100.00
2023-01-02T17:54:17.330Z,100.00
2023-01-02T17:56:45.178Z,100.00
2023-01-02T17:59:13.923Z,100.00
2023-01-02T18:01:42.852Z,100.00
2023-01-02T18:04:10.473Z,100.00
2023-01-02T18:06:38.023Z,100.00
2023-01-02T18:09:05.926Z,100.00
2023-01-02T18:11:34.569Z,100.00
2023-01-02T18:14:04.195Z,100.00
2023-01-02T18:16:35.390Z,100.00
2023-01-02T18:19:07.651Z,100.00
2023-01-02T18:21:35.551Z,100.00
2023-01-02T18:24:08.723Z,100.00
2023-01-02T18:26:36.216Z,100.00
2023-01-02T18:29:09.676Z,100.00
2023-01-02T18:31:40.670Z,100.00
2023-01-02T18:34:46.359Z,100.00
2023-01-02T18:37:15.745Z,100.00
2023-01-02T18:39:43.896Z,100.00
2023-01-02T18:42:13.639Z,100.00
2023-01-02T18:44:42.694Z,100.00
2023-01-02T18:47:24.869Z,100.00
2023-01-02T18:49:54.955Z,100.00
2023-01-02T18:52:28.263Z,100.00
2023-01-02T18:55:00.348Z,100.00
2023-01-02T18:57:32.697Z,100.00
2023-01-02T19:00:14.047Z,100.00
2023-01-02T19:02:53.215Z,100.00
2023-01-02T19:05:25.455Z,100.00
2023-01-02T19:07:55.139Z,100.00
2023-01-02T19:10:36.918Z,100.00
2023-01-02T19:13:07.937Z,100.00
2023-01-02T19:15:42.038Z,100.00
2023-01-02T19:18:21.606Z,100.00
2023-01-02T19:20:55.134Z,100.00
2023-01-02T19:23:28.210Z,100.00
2023-01-02T19:25:56.830Z,100.00
2023-01-02T19:28:28.296Z,99.19
2023-01-02T19:30:56.604Z,100.00
2023-01-02T19:33:39.117Z,100.00
2023-01-02T19:36:16.668Z,100.00
2023-01-02T19:38:45.730Z,99.54
2023-01-02T19:41:13.451Z,97.79
2023-01-02T19:43:40.921Z,96.51
2023-01-02T19:46:08.650Z,95.60
2023-01-02T19:48:36.173Z,97.19
2023-01-02T19:51:03.654Z,97.67
2023-01-02T19:53:32.502Z,95.76
2023-01-02T19:56:00.006Z,96.87
2023-01-02T19:58:27.500Z,96.53
2023-01-02T20:00:54.999Z,97.66
2023-01-02T20:03:22.595Z,98.57
2023-01-02T20:05:50.226Z,100.00
2023-01-02T20:08:17.723Z,100.00
2023-01-02T20:10:46.564Z,100.00
2023-01-02T20:13:14.041Z,100.00
2023-01-02T20:15:41.537Z,100.00
2023-01-02T20:18:09.298Z,100.00
2023-01-02T20:20:36.889Z,98.70
2023-01-02T20:23:04.420Z,100.00
2023-01-02T20:25:32.041Z,100.00
2023-01-02T20:28:03.194Z,99.25
2023-01-02T20:30:30.739Z,98.08
2023-01-02T20:32:58.215Z,99.62
2023-01-02T20:35:25.716Z,100.00
2023-01-02T20:37:53.227Z,100.00
2023-01-02T20:40:20.753Z,100.00
2023-01-02T20:42:48.321Z,100.00
2023-01-02T20:45:17.157Z,98.74
2023-01-02T20:47:44.670Z,97.47
2023-01-02T20:50:12.269Z,97.25
2023-01-02T20:52:39.770Z,100.00
2023-01-02T20:55:08.133Z,100.00
2023-01-02T20:57:35.721Z,100.00
2023-01-02T21:00:04.909Z,100.00
2023-01-02T21:02:33.872Z,100.00
2023-01-02T21:05:01.691Z,100.00
2023-01-02T21:07:29.202Z,100.00
2023-01-02T21:09:58.969Z,100.00
2023-01-02T21:12:44.223Z,100.00
2023-01-02T21:15:31.838Z,100.00
2023-01-02T21:18:00.773Z,100.00
2023-01-02T21:20:28.311Z,100.00
2023-01-02T21:22:56.522Z,100.00
2023-01-02T21:25:24.116Z,100.00
2023-01-02T21:27:51.641Z,100.00
2023-01-02T21:30:19.235Z,100.00
2023-01-02T21:32:46.776Z,100.00
2023-01-02T21:35:15.621Z,100.00
2023-01-02T21:37:43.144Z,100.00
2023-01-02T21:40:11.284Z,100.00
2023-01-02T21:42:44.494Z,100.00
2023-01-02T21:45:12.494Z,100.00
2023-01-02T21:47:39.978Z,99.94
2023-01-02T21:50:07.962Z,99.10
2023-01-02T21:52:36.978Z,100.00
2023-01-02T21:55:04.913Z,100.00
2023-01-02T21:58:11.062Z,100.00
2023-01-02T22:00:22.552Z,100.00
2023-01-02T22:02:50.269Z,100.00
2023-01-02T22:05:19.094Z,100.00
2023-01-02T22:07:48.131Z,100.00
2023-01-02T22:10:17.050Z,100.00
2023-01-02T22:12:44.665Z,100.00
2023-01-02T22:15:13.335Z,100.00
2023-01-02T22:17:41.403Z,100.00
2023-01-02T22:20:10.228Z,100.00
2023-01-02T22:22:37.872Z,100.00
2023-01-02T22:25:08.047Z,100.00
2023-01-02T22:27:35.598Z,100.00
2023-01-02T22:30:23.342Z,100.00
2023-01-02T22:32:51.584Z,100.00
2023-01-02T22:35:19.370Z,100.00
2023-01-02T22:37:46.858Z,100.00
2023-01-02T22:40:16.074Z,100.00
2023-01-02T22:43:04.815Z,100.00
2023-01-02T22:45:36.933Z,100.00
2023-01-02T22:48:08.470Z,100.00
2023-01-02T22:50:44.418Z,100.00
2023-01-02T22:53:19.328Z,100.00
2023-01-02T22:55:48.465Z,100.00
2023-01-02T22:58:16.043Z,100.00
2023-01-02T23:00:43.657Z,100.00
2023-01-02T23:03:13.455Z,100.00
2023-01-02T23:05:41.285Z,100.00
2023-01-02T23:08:09.186Z,100.00
2023-01-02T23:10:36.681Z,100.00
2023-01-02T23:13:05.725Z,100.00
2023-01-02T23:15:33.233Z,100.00
2023-01-02T23:18:18.643Z,100.00
2023-01-02T23:20:46.125Z,100.00
2023-01-02T23:23:13.651Z,100.00
2023-01-02T23:25:43.975Z,100.00
2023-01-02T23:28:31.888Z,100.00
2023-01-02T23:31:00.257Z,100.00
2023-01-02T23:33:27.910Z,100.00
2023-01-02T23:35:55.395Z,100.00
2023-01-02T23:38:22.972Z,100.00
2023-01-02T23:40:50.572Z,100.00
2023-01-02T23:43:19.423Z,100.00
2023-01-02T23:45:46.966Z,100.00
2023-01-02T23:48:14.511Z,100.00
2023-01-02T23:50:46.046Z,100.00
2023-01-02T23:53:13.924Z,100.00
2023-01-02T23:55:41.664Z,100.00
2023-01-02T23:58:09.965Z,100.00
